sensor_id;sensor_type;location;lat;lon;timestamp;temperature;humidity
52187;DHT22;38161;53.020;6.598;2022-12-05T00:00:34;3.90;99.90
52187;DHT22;38161;53.020;6.598;2022-12-05T00:03:04;3.80;99.90
52187;DHT22;38161;53.020;6.598;2022-12-05T00:05:30;3.90;99.90
52187;DHT22;38161;53.020;6.598;2022-12-05T00:07:55;3.80;99.90
52187;DHT22;38161;53.020;6.598;2022-12-05T00:10:21;3.80;99.90
52187;DHT22;38161;53.020;6.598;2022-12-05T00:12:47;3.90;99.90
52187;DHT22;38161;53.020;6.598;2022-12-05T00:15:13;3.90;99.90
52187;DHT22;38161;53.020;6.598;2022-12-05T00:17:40;3.90;99.90
52187;DHT22;38161;53.020;6.598;2022-12-05T00:20:06;3.80;99.90
52187;DHT22;38161;53.020;6.598;2022-12-05T00:22:35;3.90;99.90
52187;DHT22;38161;53.020;6.598;2022-12-05T00:25:04;3.90;99.90
52187;DHT22;38161;53.020;6.598;2022-12-05T00:27:30;3.90;99.90
52187;DHT22;38161;53.020;6.598;2022-12-05T00:29:56;3.90;99.90
52187;DHT22;38161;53.020;6.598;2022-12-05T00:32:21;4.20;99.90
52187;DHT22;38161;53.020;6.598;2022-12-05T00:34:47;3.90;99.90
52187;DHT22;38161;53.020;6.598;2022-12-05T00:37:13;3.90;99.90
52187;DHT22;38161;53.020;6.598;2022-12-05T00:39:38;3.90;99.90
52187;DHT22;38161;53.020;6.598;2022-12-05T00:42:04;4.30;99.90
52187;DHT22;38161;53.020;6.598;2022-12-05T00:44:30;3.90;99.90
52187;DHT22;38161;53.020;6.598;2022-12-05T00:46:55;3.90;99.90
52187;DHT22;38161;53.020;6.598;2022-12-05T00:49:21;3.90;99.90
52187;DHT22;38161;53.020;6.598;2022-12-05T00:51:47;4.00;99.90
52187;DHT22;38161;53.020;6.598;2022-12-05T00:54:14;4.10;99.90
52187;DHT22;38161;53.020;6.598;2022-12-05T00:56:41;4.00;99.90
52187;DHT22;38161;53.020;6.598;2022-12-05T00:59:07;4.00;99.90
52187;DHT22;38161;53.020;6.598;2022-12-05T01:01:38;4.00;99.90
52187;DHT22;38161;53.020;6.598;2022-12-05T01:04:09;4.10;99.90
52187;DHT22;38161;53.020;6.598;2022-12-05T01:06:36;4.10;99.90
52187;DHT22;38161;53.020;6.598;2022-12-05T01:09:03;4.10;99.90
52187;DHT22;38161;53.020;6.598;2022-12-05T01:11:29;4.30;99.90
52187;DHT22;38161;53.020;6.598;2022-12-05T01:13:55;4.20;99.90
52187;DHT22;38161;53.020;6.598;2022-12-05T01:16:49;4.20;99.90
52187;DHT22;38161;53.020;6.598;2022-12-05T01:19:19;4.20;99.90
52187;DHT22;38161;53.020;6.598;2022-12-05T01:21:45;4.30;99.90
52187;DHT22;38161;53.020;6.598;2022-12-05T01:24:12;4.20;99.90
52187;DHT22;38161;53.020;6.598;2022-12-05T01:26:40;4.30;99.90
52187;DHT22;38161;53.020;6.598;2022-12-05T01:29:05;4.30;99.90
52187;DHT22;38161;53.020;6.598;2022-12-05T01:31:34;4.30;99.90
52187;DHT22;38161;53.020;6.598;2022-12-05T01:34:02;4.30;99.90
52187;DHT22;38161;53.020;6.598;2022-12-05T01:36:29;4.30;99.90
52187;DHT22;38161;53.020;6.598;2022-12-05T01:38:55;4.30;99.90
52187;DHT22;38161;53.020;6.598;2022-12-05T01:41:24;4.30;99.90
52187;DHT22;38161;53.020;6.598;2022-12-05T01:46:22;4.30;99.90
52187;DHT22;38161;53.020;6.598;2022-12-05T01:48:49;4.40;99.90
52187;DHT22;38161;53.020;6.598;2022-12-05T01:51:16;4.30;99.90
52187;DHT22;38161;53.020;6.598;2022-12-05T01:53:42;4.30;99.90
52187;DHT22;38161;53.020;6.598;2022-12-05T01:56:08;4.40;99.90
52187;DHT22;38161;53.020;6.598;2022-12-05T01:58:36;4.30;99.90
52187;DHT22;38161;53.020;6.598;2022-12-05T02:01:03;4.30;99.90
52187;DHT22;38161;53.020;6.598;2022-12-05T02:03:29;4.30;99.90
52187;DHT22;38161;53.020;6.598;2022-12-05T02:05:56;4.40;99.90
52187;DHT22;38161;53.020;6.598;2022-12-05T02:08:23;4.30;99.90
52187;DHT22;38161;53.020;6.598;2022-12-05T02:10:54;4.40;99.90
52187;DHT22;38161;53.020;6.598;2022-12-05T02:17:35;4.40;99.90
52187;DHT22;38161;53.020;6.598;2022-12-05T02:22:26;4.40;99.90
52187;DHT22;38161;53.020;6.598;2022-12-05T02:30:56;4.40;99.90
52187;DHT22;38161;53.020;6.598;2022-12-05T02:33:34;4.50;99.90
52187;DHT22;38161;53.020;6.598;2022-12-05T02:39:02;4.50;99.90
52187;DHT22;38161;53.020;6.598;2022-12-05T02:44:33;4.50;99.90
52187;DHT22;38161;53.020;6.598;2022-12-05T02:47:01;4.50;99.90
52187;DHT22;38161;53.020;6.598;2022-12-05T02:49:31;4.50;99.90
52187;DHT22;38161;53.020;6.598;2022-12-05T02:52:01;4.50;99.90
52187;DHT22;38161;53.020;6.598;2022-12-05T02:54:38;4.50;99.90
52187;DHT22;38161;53.020;6.598;2022-12-05T02:57:06;4.50;99.90
52187;DHT22;38161;53.020;6.598;2022-12-05T02:59:33;4.50;99.90
52187;DHT22;38161;53.020;6.598;2022-12-05T03:01:58;4.50;99.90
52187;DHT22;38161;53.020;6.598;2022-12-05T03:04:25;4.50;99.90
52187;DHT22;38161;53.020;6.598;2022-12-05T03:07:06;4.60;99.90
52187;DHT22;38161;53.020;6.598;2022-12-05T03:09:44;4.50;99.90
52187;DHT22;38161;53.020;6.598;2022-12-05T03:12:22;4.50;99.90
52187;DHT22;38161;53.020;6.598;2022-12-05T03:15:11;4.50;99.90
52187;DHT22;38161;53.020;6.598;2022-12-05T03:18:04;4.50;99.90
52187;DHT22;38161;53.020;6.598;2022-12-05T03:23:28;4.60;99.90
52187;DHT22;38161;53.020;6.598;2022-12-05T03:32:23;4.60;99.90
52187;DHT22;38161;53.020;6.598;2022-12-05T03:40:33;4.60;99.90
52187;DHT22;38161;53.020;6.598;2022-12-05T03:45:50;4.60;99.90
52187;DHT22;38161;53.020;6.598;2022-12-05T03:51:05;4.60;99.90
52187;DHT22;38161;53.020;6.598;2022-12-05T03:53:40;4.60;99.90
52187;DHT22;38161;53.020;6.598;2022-12-05T03:56:15;4.60;99.90
52187;DHT22;38161;53.020;6.598;2022-12-05T04:01:35;4.60;99.90
52187;DHT22;38161;53.020;6.598;2022-12-05T04:04:10;4.60;99.90
52187;DHT22;38161;53.020;6.598;2022-12-05T04:06:38;5.00;99.90
52187;DHT22;38161;53.020;6.598;2022-12-05T04:09:11;4.60;99.90
52187;DHT22;38161;53.020;6.598;2022-12-05T04:11:44;4.60;99.90
52187;DHT22;38161;53.020;6.598;2022-12-05T04:14:14;4.60;99.90
52187;DHT22;38161;53.020;6.598;2022-12-05T04:16:57;4.60;99.90
52187;DHT22;38161;53.020;6.598;2022-12-05T04:19:29;4.80;99.90
52187;DHT22;38161;53.020;6.598;2022-12-05T04:22:17;4.60;99.90
52187;DHT22;38161;53.020;6.598;2022-12-05T04:24:43;4.60;99.90
52187;DHT22;38161;53.020;6.598;2022-12-05T04:30:16;4.70;99.90
52187;DHT22;38161;53.020;6.598;2022-12-05T04:32:44;4.70;99.90
52187;DHT22;38161;53.020;6.598;2022-12-05T04:35:21;4.70;99.90
52187;DHT22;38161;53.020;6.598;2022-12-05T04:37:50;4.70;99.90
52187;DHT22;38161;53.020;6.598;2022-12-05T04:40:25;4.70;99.90
52187;DHT22;38161;53.020;6.598;2022-12-05T04:42:54;4.70;99.90
52187;DHT22;38161;53.020;6.598;2022-12-05T04:45:21;4.70;99.90
52187;DHT22;38161;53.020;6.598;2022-12-05T04:47:54;4.70;99.90
52187;DHT22;38161;53.020;6.598;2022-12-05T04:50:23;4.70;99.90
52187;DHT22;38161;53.020;6.598;2022-12-05T04:52:54;4.70;99.90
52187;DHT22;38161;53.020;6.598;2022-12-05T04:55:23;4.70;99.90
52187;DHT22;38161;53.020;6.598;2022-12-05T04:58:05;4.70;99.90
52187;DHT22;38161;53.020;6.598;2022-12-05T05:00:37;4.70;99.90
52187;DHT22;38161;53.020;6.598;2022-12-05T05:03:50;4.70;99.90
52187;DHT22;38161;53.020;6.598;2022-12-05T05:05:57;4.70;99.90
52187;DHT22;38161;53.020;6.598;2022-12-05T05:08:26;4.70;99.90
52187;DHT22;38161;53.020;6.598;2022-12-05T05:13:18;4.80;99.90
52187;DHT22;38161;53.020;6.598;2022-12-05T05:15:44;4.70;99.90
52187;DHT22;38161;53.020;6.598;2022-12-05T05:18:10;4.70;99.90
52187;DHT22;38161;53.020;6.598;2022-12-05T05:20:38;4.80;99.90
52187;DHT22;38161;53.020;6.598;2022-12-05T05:23:04;4.70;99.90
52187;DHT22;38161;53.020;6.598;2022-12-05T05:25:29;4.70;99.90
52187;DHT22;38161;53.020;6.598;2022-12-05T05:27:55;4.70;99.90
52187;DHT22;38161;53.020;6.598;2022-12-05T05:30:23;4.70;99.90
52187;DHT22;38161;53.020;6.598;2022-12-05T05:32:49;4.70;99.90
52187;DHT22;38161;53.020;6.598;2022-12-05T05:35:15;4.70;99.90
52187;DHT22;38161;53.020;6.598;2022-12-05T05:37:41;4.70;99.90
52187;DHT22;38161;53.020;6.598;2022-12-05T05:40:09;4.70;99.90
52187;DHT22;38161;53.020;6.598;2022-12-05T05:42:35;4.70;99.90
52187;DHT22;38161;53.020;6.598;2022-12-05T05:45:01;4.80;99.90
52187;DHT22;38161;53.020;6.598;2022-12-05T05:47:27;4.80;99.90
52187;DHT22;38161;53.020;6.598;2022-12-05T05:49:52;4.70;99.90
52187;DHT22;38161;53.020;6.598;2022-12-05T05:52:18;4.70;99.90
52187;DHT22;38161;53.020;6.598;2022-12-05T05:54:44;4.80;99.90
52187;DHT22;38161;53.020;6.598;2022-12-05T05:57:09;4.80;99.90
52187;DHT22;38161;53.020;6.598;2022-12-05T05:59:35;4.80;99.90
52187;DHT22;38161;53.020;6.598;2022-12-05T06:02:01;4.80;99.90
52187;DHT22;38161;53.020;6.598;2022-12-05T06:04:27;4.80;99.90
52187;DHT22;38161;53.020;6.598;2022-12-05T06:06:52;4.80;99.90
52187;DHT22;38161;53.020;6.598;2022-12-05T06:09:18;4.80;99.90
52187;DHT22;38161;53.020;6.598;2022-12-05T06:11:43;4.80;99.90
52187;DHT22;38161;53.020;6.598;2022-12-05T06:14:09;4.80;99.90
52187;DHT22;38161;53.020;6.598;2022-12-05T06:16:35;4.80;99.90
52187;DHT22;38161;53.020;6.598;2022-12-05T06:19:00;4.90;99.90
52187;DHT22;38161;53.020;6.598;2022-12-05T06:21:26;4.80;99.90
52187;DHT22;38161;53.020;6.598;2022-12-05T06:23:52;4.80;99.90
52187;DHT22;38161;53.020;6.598;2022-12-05T06:26:20;4.80;99.90
52187;DHT22;38161;53.020;6.598;2022-12-05T06:28:46;4.90;99.90
52187;DHT22;38161;53.020;6.598;2022-12-05T06:31:15;4.80;99.90
52187;DHT22;38161;53.020;6.598;2022-12-05T06:33:42;4.90;99.90
52187;DHT22;38161;53.020;6.598;2022-12-05T06:36:12;4.80;99.90
52187;DHT22;38161;53.020;6.598;2022-12-05T06:38:39;4.80;99.90
52187;DHT22;38161;53.020;6.598;2022-12-05T06:41:10;4.90;99.90
52187;DHT22;38161;53.020;6.598;2022-12-05T06:43:38;4.80;99.90
52187;DHT22;38161;53.020;6.598;2022-12-05T06:46:04;4.90;99.90
52187;DHT22;38161;53.020;6.598;2022-12-05T06:48:30;4.80;99.90
52187;DHT22;38161;53.020;6.598;2022-12-05T06:50:56;4.80;99.90
52187;DHT22;38161;53.020;6.598;2022-12-05T06:53:22;5.00;99.90
52187;DHT22;38161;53.020;6.598;2022-12-05T06:55:58;4.80;99.90
52187;DHT22;38161;53.020;6.598;2022-12-05T06:58:24;4.80;99.90
52187;DHT22;38161;53.020;6.598;2022-12-05T07:00:50;5.00;99.90
52187;DHT22;38161;53.020;6.598;2022-12-05T07:03:35;4.80;99.90
52187;DHT22;38161;53.020;6.598;2022-12-05T07:06:02;5.00;99.90
52187;DHT22;38161;53.020;6.598;2022-12-05T07:08:28;4.80;99.90
52187;DHT22;38161;53.020;6.598;2022-12-05T07:10:54;4.80;99.90
52187;DHT22;38161;53.020;6.598;2022-12-05T07:13:20;4.90;99.90
52187;DHT22;38161;53.020;6.598;2022-12-05T07:15:47;4.80;99.90
52187;DHT22;38161;53.020;6.598;2022-12-05T07:18:14;4.80;99.90
52187;DHT22;38161;53.020;6.598;2022-12-05T07:20:41;4.80;99.90
52187;DHT22;38161;53.020;6.598;2022-12-05T07:23:07;4.80;99.90
52187;DHT22;38161;53.020;6.598;2022-12-05T07:25:33;4.80;99.90
52187;DHT22;38161;53.020;6.598;2022-12-05T07:27:58;4.90;99.90
52187;DHT22;38161;53.020;6.598;2022-12-05T07:30:24;4.80;99.90
52187;DHT22;38161;53.020;6.598;2022-12-05T07:32:50;4.80;99.90
52187;DHT22;38161;53.020;6.598;2022-12-05T07:35:15;4.80;99.90
52187;DHT22;38161;53.020;6.598;2022-12-05T07:37:41;4.80;99.90
52187;DHT22;38161;53.020;6.598;2022-12-05T07:40:07;4.80;99.90
52187;DHT22;38161;53.020;6.598;2022-12-05T07:42:33;4.80;99.90
52187;DHT22;38161;53.020;6.598;2022-12-05T07:44:59;4.80;99.90
52187;DHT22;38161;53.020;6.598;2022-12-05T07:47:24;4.80;99.90
52187;DHT22;38161;53.020;6.598;2022-12-05T07:49:50;4.80;99.90
52187;DHT22;38161;53.020;6.598;2022-12-05T07:52:16;4.80;99.90
52187;DHT22;38161;53.020;6.598;2022-12-05T07:54:41;4.80;99.90
52187;DHT22;38161;53.020;6.598;2022-12-05T07:57:07;4.80;99.90
52187;DHT22;38161;53.020;6.598;2022-12-05T07:59:33;5.20;99.90
52187;DHT22;38161;53.020;6.598;2022-12-05T08:01:59;4.80;99.90
52187;DHT22;38161;53.020;6.598;2022-12-05T08:04:24;4.80;99.90
52187;DHT22;38161;53.020;6.598;2022-12-05T08:06:50;4.80;99.90
52187;DHT22;38161;53.020;6.598;2022-12-05T08:09:16;4.80;99.90
52187;DHT22;38161;53.020;6.598;2022-12-05T08:11:41;4.80;99.90
52187;DHT22;38161;53.020;6.598;2022-12-05T08:14:11;4.90;99.90
52187;DHT22;38161;53.020;6.598;2022-12-05T08:16:37;5.20;99.90
52187;DHT22;38161;53.020;6.598;2022-12-05T08:19:07;5.00;99.90
52187;DHT22;38161;53.020;6.598;2022-12-05T08:21:34;4.90;99.90
52187;DHT22;38161;53.020;6.598;2022-12-05T08:24:02;4.80;99.90
52187;DHT22;38161;53.020;6.598;2022-12-05T08:26:30;4.80;99.90
52187;DHT22;38161;53.020;6.598;2022-12-05T08:28:58;4.80;99.90
52187;DHT22;38161;53.020;6.598;2022-12-05T08:31:26;4.80;99.90
52187;DHT22;38161;53.020;6.598;2022-12-05T08:33:52;4.80;99.90
52187;DHT22;38161;53.020;6.598;2022-12-05T08:36:18;4.80;99.90
52187;DHT22;38161;53.020;6.598;2022-12-05T08:38:44;4.90;99.90
52187;DHT22;38161;53.020;6.598;2022-12-05T08:41:14;4.80;99.90
52187;DHT22;38161;53.020;6.598;2022-12-05T08:43:40;4.80;99.90
52187;DHT22;38161;53.020;6.598;2022-12-05T08:46:07;4.80;99.90
52187;DHT22;38161;53.020;6.598;2022-12-05T08:48:33;4.80;99.90
52187;DHT22;38161;53.020;6.598;2022-12-05T08:51:03;4.80;99.90
52187;DHT22;38161;53.020;6.598;2022-12-05T08:53:29;4.80;99.90
52187;DHT22;38161;53.020;6.598;2022-12-05T08:55:54;4.80;99.90
52187;DHT22;38161;53.020;6.598;2022-12-05T08:58:20;4.80;99.90
52187;DHT22;38161;53.020;6.598;2022-12-05T09:00:46;4.80;99.90
52187;DHT22;38161;53.020;6.598;2022-12-05T09:03:11;4.90;99.90
52187;DHT22;38161;53.020;6.598;2022-12-05T09:05:38;4.80;99.90
52187;DHT22;38161;53.020;6.598;2022-12-05T09:08:03;4.80;99.90
52187;DHT22;38161;53.020;6.598;2022-12-05T09:10:29;4.80;99.90
52187;DHT22;38161;53.020;6.598;2022-12-05T09:12:55;4.80;99.90
52187;DHT22;38161;53.020;6.598;2022-12-05T09:15:21;4.80;99.90
52187;DHT22;38161;53.020;6.598;2022-12-05T09:17:46;4.80;99.90
52187;DHT22;38161;53.020;6.598;2022-12-05T09:20:12;4.80;99.90
52187;DHT22;38161;53.020;6.598;2022-12-05T09:22:39;4.80;99.90
52187;DHT22;38161;53.020;6.598;2022-12-05T09:25:06;5.00;99.90
52187;DHT22;38161;53.020;6.598;2022-12-05T09:27:33;4.80;99.90
52187;DHT22;38161;53.020;6.598;2022-12-05T09:29:59;4.80;99.90
52187;DHT22;38161;53.020;6.598;2022-12-05T09:32:24;4.80;99.90
52187;DHT22;38161;53.020;6.598;2022-12-05T09:34:50;4.80;99.90
52187;DHT22;38161;53.020;6.598;2022-12-05T09:37:16;4.80;99.90
52187;DHT22;38161;53.020;6.598;2022-12-05T09:39:45;4.80;99.90
52187;DHT22;38161;53.020;6.598;2022-12-05T09:42:35;4.80;99.90
52187;DHT22;38161;53.020;6.598;2022-12-05T09:45:17;4.80;99.90
52187;DHT22;38161;53.020;6.598;2022-12-05T09:58:49;4.90;99.90
52187;DHT22;38161;53.020;6.598;2022-12-05T10:15:37;4.80;99.90
52187;DHT22;38161;53.020;6.598;2022-12-05T10:23:43;4.90;99.90
52187;DHT22;38161;53.020;6.598;2022-12-05T10:26:11;5.00;99.90
52187;DHT22;38161;53.020;6.598;2022-12-05T10:31:17;4.90;99.90
52187;DHT22;38161;53.020;6.598;2022-12-05T10:33:52;4.90;99.90
52187;DHT22;38161;53.020;6.598;2022-12-05T10:36:18;5.20;99.90
52187;DHT22;38161;53.020;6.598;2022-12-05T10:38:44;5.00;99.90
52187;DHT22;38161;53.020;6.598;2022-12-05T10:41:12;5.00;99.90
52187;DHT22;38161;53.020;6.598;2022-12-05T10:43:42;4.90;99.90
52187;DHT22;38161;53.020;6.598;2022-12-05T10:46:10;4.90;99.90
52187;DHT22;38161;53.020;6.598;2022-12-05T10:48:38;4.90;99.90
52187;DHT22;38161;53.020;6.598;2022-12-05T10:51:05;4.90;99.90
52187;DHT22;38161;53.020;6.598;2022-12-05T10:53:42;4.90;99.90
52187;DHT22;38161;53.020;6.598;2022-12-05T10:59:03;4.90;99.90
52187;DHT22;38161;53.020;6.598;2022-12-05T11:01:29;4.90;99.90
52187;DHT22;38161;53.020;6.598;2022-12-05T11:03:57;4.90;99.90
52187;DHT22;38161;53.020;6.598;2022-12-05T11:06:31;5.10;99.90
52187;DHT22;38161;53.020;6.598;2022-12-05T11:09:21;5.10;99.90
52187;DHT22;38161;53.020;6.598;2022-12-05T11:15:00;5.00;99.90
52187;DHT22;38161;53.020;6.598;2022-12-05T11:17:37;5.00;99.90
52187;DHT22;38161;53.020;6.598;2022-12-05T11:22:54;5.00;99.90
52187;DHT22;38161;53.020;6.598;2022-12-05T11:27:57;5.00;99.90
52187;DHT22;38161;53.020;6.598;2022-12-05T11:30:26;5.00;99.90
52187;DHT22;38161;53.020;6.598;2022-12-05T11:33:18;5.00;99.90
52187;DHT22;38161;53.020;6.598;2022-12-05T11:35:46;5.00;99.90
52187;DHT22;38161;53.020;6.598;2022-12-05T11:38:14;5.20;99.90
52187;DHT22;38161;53.020;6.598;2022-12-05T11:41:04;5.10;99.90
52187;DHT22;38161;53.020;6.598;2022-12-05T11:43:57;5.10;99.90
52187;DHT22;38161;53.020;6.598;2022-12-05T11:52:51;5.10;99.90
52187;DHT22;38161;53.020;6.598;2022-12-05T11:55:23;5.10;99.90
52187;DHT22;38161;53.020;6.598;2022-12-05T11:58:28;5.10;99.90
52187;DHT22;38161;53.020;6.598;2022-12-05T12:03:49;5.10;99.90
52187;DHT22;38161;53.020;6.598;2022-12-05T12:15:51;5.10;99.90
52187;DHT22;38161;53.020;6.598;2022-12-05T12:24:04;5.10;99.90
52187;DHT22;38161;53.020;6.598;2022-12-05T12:51:52;5.10;99.90
52187;DHT22;38161;53.020;6.598;2022-12-05T12:54:40;5.10;99.90
52187;DHT22;38161;53.020;6.598;2022-12-05T12:57:13;5.10;99.90
52187;DHT22;38161;53.020;6.598;2022-12-05T13:00:00;5.10;99.90
52187;DHT22;38161;53.020;6.598;2022-12-05T13:02:35;5.10;99.90
52187;DHT22;38161;53.020;6.598;2022-12-05T13:05:14;5.10;99.90
52187;DHT22;38161;53.020;6.598;2022-12-05T13:07:46;5.20;99.90
52187;DHT22;38161;53.020;6.598;2022-12-05T13:10:25;5.10;99.90
52187;DHT22;38161;53.020;6.598;2022-12-05T13:12:52;5.30;99.90
52187;DHT22;38161;53.020;6.598;2022-12-05T13:15:27;5.10;99.90
52187;DHT22;38161;53.020;6.598;2022-12-05T13:17:56;5.10;99.90
52187;DHT22;38161;53.020;6.598;2022-12-05T13:20:24;5.10;99.90
52187;DHT22;38161;53.020;6.598;2022-12-05T13:22:53;5.20;99.90
52187;DHT22;38161;53.020;6.598;2022-12-05T13:25:22;5.10;99.90
52187;DHT22;38161;53.020;6.598;2022-12-05T13:28:00;5.10;99.90
52187;DHT22;38161;53.020;6.598;2022-12-05T13:30:27;6.20;99.90
52187;DHT22;38161;53.020;6.598;2022-12-05T13:33:07;5.10;99.90
52187;DHT22;38161;53.020;6.598;2022-12-05T13:35:35;5.10;99.90
52187;DHT22;38161;53.020;6.598;2022-12-05T13:38:28;5.10;99.90
52187;DHT22;38161;53.020;6.598;2022-12-05T13:41:14;5.10;99.90
52187;DHT22;38161;53.020;6.598;2022-12-05T13:43:59;5.10;99.90
52187;DHT22;38161;53.020;6.598;2022-12-05T13:46:29;5.10;99.90
52187;DHT22;38161;53.020;6.598;2022-12-05T13:49:27;5.10;99.90
52187;DHT22;38161;53.020;6.598;2022-12-05T13:52:07;5.10;99.90
52187;DHT22;38161;53.020;6.598;2022-12-05T13:54:34;5.10;99.90
52187;DHT22;38161;53.020;6.598;2022-12-05T13:57:12;5.10;99.90
52187;DHT22;38161;53.020;6.598;2022-12-05T14:00:20;5.10;99.90
52187;DHT22;38161;53.020;6.598;2022-12-05T14:03:01;5.10;99.90
52187;DHT22;38161;53.020;6.598;2022-12-05T14:05:39;5.10;99.90
52187;DHT22;38161;53.020;6.598;2022-12-05T14:15:52;5.10;99.90
52187;DHT22;38161;53.020;6.598;2022-12-05T14:18:46;5.10;99.90
52187;DHT22;38161;53.020;6.598;2022-12-05T14:24:02;5.10;99.90
52187;DHT22;38161;53.020;6.598;2022-12-05T14:27:09;5.10;99.90
52187;DHT22;38161;53.020;6.598;2022-12-05T14:32:28;5.10;99.90
52187;DHT22;38161;53.020;6.598;2022-12-05T14:35:15;5.10;99.90
52187;DHT22;38161;53.020;6.598;2022-12-05T14:42:53;5.10;99.90
52187;DHT22;38161;53.020;6.598;2022-12-05T14:45:35;5.10;99.90
52187;DHT22;38161;53.020;6.598;2022-12-05T14:50:45;5.00;99.90
52187;DHT22;38161;53.020;6.598;2022-12-05T14:55:44;5.20;99.90
52187;DHT22;38161;53.020;6.598;2022-12-05T15:00:46;5.00;99.90
52187;DHT22;38161;53.020;6.598;2022-12-05T15:03:24;5.40;99.90
52187;DHT22;38161;53.020;6.598;2022-12-05T15:05:52;5.00;99.90
52187;DHT22;38161;53.020;6.598;2022-12-05T15:08:18;5.10;99.90
52187;DHT22;38161;53.020;6.598;2022-12-05T15:10:45;5.10;99.90
52187;DHT22;38161;53.020;6.598;2022-12-05T15:13:17;5.00;99.90
52187;DHT22;38161;53.020;6.598;2022-12-05T15:16:11;5.10;99.90
52187;DHT22;38161;53.020;6.598;2022-12-05T15:18:43;5.00;99.90
52187;DHT22;38161;53.020;6.598;2022-12-05T15:21:27;5.00;99.90
52187;DHT22;38161;53.020;6.598;2022-12-05T15:23:57;5.00;99.90
52187;DHT22;38161;53.020;6.598;2022-12-05T15:26:40;5.00;99.90
52187;DHT22;38161;53.020;6.598;2022-12-05T15:31:55;5.00;99.90
52187;DHT22;38161;53.020;6.598;2022-12-05T15:37:00;5.10;99.90
52187;DHT22;38161;53.020;6.598;2022-12-05T15:39:27;5.00;99.90
52187;DHT22;38161;53.020;6.598;2022-12-05T15:41:55;5.10;99.90
52187;DHT22;38161;53.020;6.598;2022-12-05T15:44:22;5.00;99.90
52187;DHT22;38161;53.020;6.598;2022-12-05T15:46:53;5.10;99.90
52187;DHT22;38161;53.020;6.598;2022-12-05T15:49:26;5.00;99.90
52187;DHT22;38161;53.020;6.598;2022-12-05T15:54:43;5.00;99.90
52187;DHT22;38161;53.020;6.598;2022-12-05T15:57:17;5.00;99.90
52187;DHT22;38161;53.020;6.598;2022-12-05T15:59:49;5.00;99.90
52187;DHT22;38161;53.020;6.598;2022-12-05T16:02:22;5.00;99.90
52187;DHT22;38161;53.020;6.598;2022-12-05T16:04:51;5.00;99.90
52187;DHT22;38161;53.020;6.598;2022-12-05T16:07:18;5.00;99.90
52187;DHT22;38161;53.020;6.598;2022-12-05T16:09:45;5.00;99.90
52187;DHT22;38161;53.020;6.598;2022-12-05T16:14:55;5.00;99.90
52187;DHT22;38161;53.020;6.598;2022-12-05T16:17:23;5.00;99.90
52187;DHT22;38161;53.020;6.598;2022-12-05T16:19:48;5.00;99.90
52187;DHT22;38161;53.020;6.598;2022-12-05T16:22:23;5.00;99.90
52187;DHT22;38161;53.020;6.598;2022-12-05T16:24:59;5.00;99.90
52187;DHT22;38161;53.020;6.598;2022-12-05T16:27:32;5.00;99.90
52187;DHT22;38161;53.020;6.598;2022-12-05T16:32:38;5.00;99.90
52187;DHT22;38161;53.020;6.598;2022-12-05T16:35:31;5.10;99.90
52187;DHT22;38161;53.020;6.598;2022-12-05T16:40:55;5.00;99.90
52187;DHT22;38161;53.020;6.598;2022-12-05T16:45:52;5.00;99.90
52187;DHT22;38161;53.020;6.598;2022-12-05T16:48:25;5.00;99.90
52187;DHT22;38161;53.020;6.598;2022-12-05T16:50:53;5.00;99.90
52187;DHT22;38161;53.020;6.598;2022-12-05T16:53:39;5.00;99.90
52187;DHT22;38161;53.020;6.598;2022-12-05T16:56:17;5.00;99.90
52187;DHT22;38161;53.020;6.598;2022-12-05T16:58:44;5.00;99.90
52187;DHT22;38161;53.020;6.598;2022-12-05T17:01:16;5.00;99.90
52187;DHT22;38161;53.020;6.598;2022-12-05T17:03:43;5.00;99.90
52187;DHT22;38161;53.020;6.598;2022-12-05T17:06:09;5.00;99.90
52187;DHT22;38161;53.020;6.598;2022-12-05T17:08:35;5.00;99.90
52187;DHT22;38161;53.020;6.598;2022-12-05T17:11:01;5.00;99.90
52187;DHT22;38161;53.020;6.598;2022-12-05T17:13:29;5.00;99.90
52187;DHT22;38161;53.020;6.598;2022-12-05T17:15:56;5.00;99.90
52187;DHT22;38161;53.020;6.598;2022-12-05T17:18:21;5.00;99.90
52187;DHT22;38161;53.020;6.598;2022-12-05T17:20:53;5.00;99.90
52187;DHT22;38161;53.020;6.598;2022-12-05T17:23:19;5.00;99.90
52187;DHT22;38161;53.020;6.598;2022-12-05T17:25:57;5.00;99.90
52187;DHT22;38161;53.020;6.598;2022-12-05T17:28:24;5.00;99.90
52187;DHT22;38161;53.020;6.598;2022-12-05T17:30:50;5.00;99.90
52187;DHT22;38161;53.020;6.598;2022-12-05T17:33:18;5.00;99.90
52187;DHT22;38161;53.020;6.598;2022-12-05T17:35:44;5.00;99.90
52187;DHT22;38161;53.020;6.598;2022-12-05T17:38:10;5.00;99.90
52187;DHT22;38161;53.020;6.598;2022-12-05T17:40:37;5.00;99.90
52187;DHT22;38161;53.020;6.598;2022-12-05T17:43:03;5.00;99.90
52187;DHT22;38161;53.020;6.598;2022-12-05T17:45:29;5.00;99.90
52187;DHT22;38161;53.020;6.598;2022-12-05T17:47:55;5.00;99.90
52187;DHT22;38161;53.020;6.598;2022-12-05T17:50:23;5.10;99.90
52187;DHT22;38161;53.020;6.598;2022-12-05T17:52:50;5.00;99.90
52187;DHT22;38161;53.020;6.598;2022-12-05T17:55:18;5.00;99.90
52187;DHT22;38161;53.020;6.598;2022-12-05T17:57:48;5.10;99.90
52187;DHT22;38161;53.020;6.598;2022-12-05T18:00:15;5.00;99.90
52187;DHT22;38161;53.020;6.598;2022-12-05T18:02:42;5.00;99.90
52187;DHT22;38161;53.020;6.598;2022-12-05T18:05:10;5.00;99.90
52187;DHT22;38161;53.020;6.598;2022-12-05T18:07:37;5.10;99.90
52187;DHT22;38161;53.020;6.598;2022-12-05T18:10:03;5.00;99.90
52187;DHT22;38161;53.020;6.598;2022-12-05T18:12:29;5.00;99.90
52187;DHT22;38161;53.020;6.598;2022-12-05T18:14:55;5.00;99.90
52187;DHT22;38161;53.020;6.598;2022-12-05T18:17:23;5.00;99.90
52187;DHT22;38161;53.020;6.598;2022-12-05T18:19:49;5.00;99.90
52187;DHT22;38161;53.020;6.598;2022-12-05T18:22:15;5.00;99.90
52187;DHT22;38161;53.020;6.598;2022-12-05T18:24:41;5.00;99.90
52187;DHT22;38161;53.020;6.598;2022-12-05T18:27:06;5.00;99.90
52187;DHT22;38161;53.020;6.598;2022-12-05T18:29:32;5.00;99.90
52187;DHT22;38161;53.020;6.598;2022-12-05T18:31:58;5.00;99.90
52187;DHT22;38161;53.020;6.598;2022-12-05T18:34:24;5.00;99.90
52187;DHT22;38161;53.020;6.598;2022-12-05T18:36:50;5.00;99.90
52187;DHT22;38161;53.020;6.598;2022-12-05T18:39:16;5.10;99.90
52187;DHT22;38161;53.020;6.598;2022-12-05T18:41:41;5.00;99.90
52187;DHT22;38161;53.020;6.598;2022-12-05T18:44:08;5.00;99.90
52187;DHT22;38161;53.020;6.598;2022-12-05T18:46:34;5.00;99.90
52187;DHT22;38161;53.020;6.598;2022-12-05T18:49:01;5.00;99.90
52187;DHT22;38161;53.020;6.598;2022-12-05T18:51:27;4.90;99.90
52187;DHT22;38161;53.020;6.598;2022-12-05T18:53:53;4.90;99.90
52187;DHT22;38161;53.020;6.598;2022-12-05T18:56:24;5.00;99.90
52187;DHT22;38161;53.020;6.598;2022-12-05T18:58:54;4.90;99.90
52187;DHT22;38161;53.020;6.598;2022-12-05T19:01:21;5.00;99.90
52187;DHT22;38161;53.020;6.598;2022-12-05T19:03:46;5.00;99.90
52187;DHT22;38161;53.020;6.598;2022-12-05T19:06:18;5.00;99.90
52187;DHT22;38161;53.020;6.598;2022-12-05T19:08:44;5.00;99.90
52187;DHT22;38161;53.020;6.598;2022-12-05T19:11:11;5.00;99.90